createdAt,value
2019-02-27T00:02:27.086Z,445.55
2019-02-27T00:04:56.895Z,447.95
2019-02-27T00:07:26.703Z,450.25
2019-02-27T00:09:56.504Z,447.90
2019-02-27T00:12:26.391Z,437.48
2019-02-27T00:14:56.263Z,436.55
2019-02-27T00:17:26.038Z,417.30
2019-02-27T00:19:55.963Z,435.13
2019-02-27T00:22:25.831Z,431.55
2019-02-27T00:24:56.408Z,422.00
2019-02-27T00:27:26.262Z,419.90
2019-02-27T00:29:56.360Z,415.00
2019-02-27T00:32:26.100Z,413.48
2019-02-27T00:34:55.982Z,412.00
2019-02-27T00:37:25.741Z,407.27
2019-02-27T00:39:55.654Z,408.98
2019-02-27T00:42:33.241Z,413.72
2019-02-27T00:44:56.972Z,409.63
2019-02-27T00:47:27.786Z,407.10
2019-02-27T00:49:57.572Z,414.15
2019-02-27T00:52:27.430Z,411.65
2019-02-27T00:54:57.242Z,397.50
2019-02-27T00:57:27.034Z,395.73
2019-02-27T00:59:56.891Z,398.60
2019-02-27T01:02:27.115Z,408.87
2019-02-27T01:04:57.005Z,403.77
2019-02-27T01:07:26.872Z,406.73
2019-02-27T01:09:56.694Z,403.58
2019-02-27T01:12:26.505Z,399.30
2019-02-27T01:14:56.466Z,398.93
2019-02-27T01:17:26.435Z,397.12
2019-02-27T01:19:56.501Z,399.80
2019-02-27T01:22:26.368Z,393.17
2019-02-27T01:24:56.551Z,387.13
2019-02-27T01:27:26.368Z,386.00
2019-02-27T01:29:56.271Z,382.30
2019-02-27T01:32:28.883Z,383.85
2019-02-27T01:34:58.597Z,372.88
2019-02-27T01:37:31.458Z,368.43
2019-02-27T01:40:00.274Z,374.15
2019-02-27T01:42:32.773Z,378.23
2019-02-27T01:45:01.745Z,386.43
2019-02-27T01:47:35.906Z,370.83
2019-02-27T01:50:03.707Z,362.42
2019-02-27T01:52:34.101Z,377.07
2019-02-27T01:55:04.852Z,381.17
2019-02-27T01:57:36.823Z,386.10
2019-02-27T02:00:07.007Z,372.42
2019-02-27T02:02:37.586Z,369.77
2019-02-27T02:05:08.517Z,381.67
2019-02-27T02:07:40.298Z,383.25
2019-02-27T02:10:10.841Z,388.17
2019-02-27T02:12:41.620Z,387.15
2019-02-27T02:15:27.825Z,376.90
2019-02-27T02:18:30.535Z,369.15
2019-02-27T02:21:03.734Z,365.37
2019-02-27T02:23:49.215Z,366.60
2019-02-27T02:26:28.010Z,362.33
2019-02-27T02:29:09.788Z,361.70
2019-02-27T02:31:42.958Z,353.77
2019-02-27T02:34:30.688Z,352.32
2019-02-27T02:37:21.652Z,357.48
2019-02-27T02:40:06.194Z,347.15
2019-02-27T02:43:03.094Z,345.45
2019-02-27T02:45:34.498Z,346.05
2019-02-27T02:48:22.199Z,346.20
2019-02-27T02:51:00.745Z,350.22
2019-02-27T02:53:42.549Z,357.05
2019-02-27T02:56:24.881Z,356.45
2019-02-27T02:59:24.522Z,370.12
2019-02-27T03:01:53.115Z,376.62
2019-02-27T03:04:47.908Z,373.75
2019-02-27T03:07:24.292Z,374.82
2019-02-27T03:10:08.855Z,371.18
2019-02-27T03:12:47.559Z,371.18
2019-02-27T03:15:36.917Z,371.52
2019-02-27T03:18:15.870Z,360.57
2019-02-27T03:20:57.396Z,365.45
2019-02-27T03:23:57.293Z,366.95
2019-02-27T03:26:41.718Z,350.70
2019-02-27T03:29:39.896Z,358.30
2019-02-27T03:32:24.361Z,338.02
2019-02-27T03:35:06.285Z,339.42
2019-02-27T03:37:53.913Z,346.65
2019-02-27T03:40:29.462Z,348.52
2019-02-27T03:43:10.140Z,339.93
2019-02-27T03:46:03.022Z,347.45
2019-02-27T03:48:36.965Z,344.80
2019-02-27T03:51:13.012Z,354.87
2019-02-27T03:54:11.401Z,343.17
2019-02-27T03:57:19.011Z,336.67
2019-02-27T04:00:06.743Z,343.63
2019-02-27T04:02:45.480Z,345.00
2019-02-27T04:05:33.049Z,334.55
2019-02-27T04:08:29.620Z,335.20
2019-02-27T04:11:05.422Z,327.45
2019-02-27T04:13:30.892Z,339.23
2019-02-27T04:16:00.701Z,334.70
2019-02-27T04:18:29.454Z,327.35
2019-02-27T04:20:59.583Z,332.10
2019-02-27T04:23:29.428Z,331.98
2019-02-27T04:25:59.223Z,343.17
2019-02-27T04:28:29.974Z,329.60
2019-02-27T04:31:00.499Z,349.80
2019-02-27T04:33:30.230Z,333.38
2019-02-27T04:36:00.134Z,344.07
2019-02-27T04:38:30.046Z,337.38
2019-02-27T04:40:59.863Z,346.48
2019-02-27T04:43:31.992Z,337.38
2019-02-27T04:46:01.294Z,334.90
2019-02-27T04:48:31.160Z,334.83
2019-02-27T04:51:01.070Z,327.87
2019-02-27T04:53:31.991Z,329.02
2019-02-27T04:56:02.376Z,339.98
2019-02-27T04:58:32.206Z,337.82
2019-02-27T05:01:02.163Z,340.67
2019-02-27T05:03:33.064Z,342.93
2019-02-27T05:06:03.482Z,336.52
2019-02-27T05:08:33.472Z,330.20
2019-02-27T05:11:03.216Z,330.25
2019-02-27T05:13:34.618Z,333.90
2019-02-27T05:16:04.592Z,341.27
2019-02-27T05:18:34.564Z,350.73
2019-02-27T05:21:04.453Z,334.75
2019-02-27T05:23:34.268Z,331.80
2019-02-27T05:26:04.156Z,324.62
2019-02-27T05:28:34.996Z,325.05
2019-02-27T05:31:05.553Z,330.23
2019-02-27T05:33:36.469Z,338.60
2019-02-27T05:36:06.892Z,334.23
2019-02-27T05:38:36.739Z,337.93
2019-02-27T05:41:06.826Z,325.10
2019-02-27T05:43:36.565Z,325.93
2019-02-27T05:46:06.406Z,329.52
2019-02-27T05:48:36.151Z,330.73
2019-02-27T05:51:07.580Z,328.47
2019-02-27T05:53:37.473Z,330.12
2019-02-27T05:56:07.353Z,323.38
2019-02-27T05:58:37.338Z,334.37
2019-02-27T06:01:07.137Z,331.95
2019-02-27T06:03:37.147Z,324.55
2019-02-27T06:06:11.541Z,320.05
2019-02-27T06:08:38.489Z,332.80
2019-02-27T06:11:08.431Z,329.90
2019-02-27T06:13:38.147Z,322.10
2019-02-27T06:16:09.321Z,322.42
2019-02-27T06:18:39.205Z,330.95
2019-02-27T06:21:09.061Z,329.95
2019-02-27T06:23:38.699Z,329.38
2019-02-27T06:26:08.528Z,339.67
2019-02-27T06:28:38.217Z,338.90
2019-02-27T06:31:07.895Z,341.50
2019-02-27T06:33:37.653Z,340.18
2019-02-27T06:36:07.757Z,334.23
2019-02-27T06:38:38.213Z,328.83
2019-02-27T06:41:08.075Z,330.85
2019-02-27T06:43:38.689Z,326.65
2019-02-27T06:46:08.567Z,321.55
2019-02-27T06:48:38.317Z,327.05
2019-02-27T06:51:08.003Z,331.67
2019-02-27T06:53:37.767Z,334.55
2019-02-27T06:56:07.379Z,343.77
2019-02-27T06:58:37.122Z,342.85
2019-02-27T07:01:09.482Z,342.37
2019-02-27T07:03:38.129Z,355.00
2019-02-27T07:06:07.762Z,350.75
2019-02-27T07:08:38.078Z,356.75
2019-02-27T07:11:10.879Z,362.52
2019-02-27T07:13:39.794Z,379.80
2019-02-27T07:16:09.589Z,379.63
2019-02-27T07:18:41.658Z,384.05
2019-02-27T07:21:10.555Z,381.15
2019-02-27T07:23:40.231Z,399.45
2019-02-27T07:26:10.009Z,398.27
2019-02-27T07:28:43.156Z,411.92
2019-02-27T07:31:12.491Z,406.78
2019-02-27T07:33:43.262Z,419.50
2019-02-27T07:36:13.931Z,423.45
2019-02-27T07:38:43.663Z,435.95
2019-02-27T07:41:17.553Z,444.30
2019-02-27T07:43:44.941Z,440.85
2019-02-27T07:46:14.922Z,441.02
2019-02-27T07:48:44.520Z,441.65
2019-02-27T07:51:14.251Z,437.57
2019-02-27T07:53:43.851Z,440.70
2019-02-27T07:56:13.638Z,435.65
2019-02-27T07:58:43.299Z,433.70
2019-02-27T08:01:13.071Z,444.50
2019-02-27T08:03:44.668Z,431.27
2019-02-27T08:06:14.078Z,439.37
2019-02-27T08:08:44.883Z,452.90
2019-02-27T08:11:14.498Z,474.80
2019-02-27T08:13:44.172Z,477.85
2019-02-27T08:16:14.840Z,493.85
2019-02-27T08:18:44.557Z,498.35
2019-02-27T08:21:15.117Z,499.40
2019-02-27T08:23:44.863Z,513.77
2019-02-27T08:26:14.529Z,518.97
2019-02-27T08:28:44.166Z,530.42
2019-02-27T08:31:13.893Z,539.23
2019-02-27T08:33:43.513Z,537.92
2019-02-27T08:36:13.249Z,549.00
2019-02-27T08:38:42.949Z,544.13
2019-02-27T08:41:12.689Z,525.40
2019-02-27T08:43:42.340Z,535.85
2019-02-27T08:46:12.221Z,534.60
2019-02-27T08:48:41.954Z,536.92
2019-02-27T08:51:11.641Z,543.33
2019-02-27T08:53:41.359Z,550.95
2019-02-27T08:56:12.433Z,552.60
2019-02-27T08:58:42.959Z,568.70
2019-02-27T09:01:12.685Z,565.33
2019-02-27T09:03:42.296Z,565.00
2019-02-27T09:06:11.970Z,567.08
2019-02-27T09:08:44.063Z,569.58
2019-02-27T09:11:14.740Z,567.00
2019-02-27T09:13:44.708Z,570.25
2019-02-27T09:16:14.364Z,568.23
2019-02-27T09:18:44.271Z,572.85
2019-02-27T09:21:14.111Z,562.80
2019-02-27T09:23:43.864Z,565.40
2019-02-27T09:26:13.507Z,555.42
2019-02-27T09:28:44.507Z,555.27
2019-02-27T09:31:14.790Z,576.48
2019-02-27T09:33:44.603Z,570.57
2019-02-27T09:36:14.264Z,581.78
2019-02-27T09:38:45.203Z,585.53
2019-02-27T09:41:15.171Z,603.77
2019-02-27T09:43:45.915Z,605.63
2019-02-27T09:46:19.278Z,620.45
2019-02-27T09:48:48.114Z,621.75
2019-02-27T09:51:19.163Z,641.45
2019-02-27T09:53:49.332Z,637.75
2019-02-27T09:56:19.257Z,644.00
2019-02-27T09:58:48.951Z,656.75
2019-02-27T10:01:18.701Z,650.98
2019-02-27T10:03:48.443Z,671.33
2019-02-27T10:06:18.109Z,686.98
2019-02-27T10:08:47.786Z,695.33
2019-02-27T10:11:19.566Z,689.83
2019-02-27T10:13:48.912Z,683.38
2019-02-27T10:16:19.480Z,708.27
2019-02-27T10:18:49.203Z,722.98
2019-02-27T10:21:18.936Z,716.35
2019-02-27T10:23:48.957Z,729.20
2019-02-27T10:26:19.411Z,735.55
2019-02-27T10:28:50.145Z,717.35
2019-02-27T10:31:19.753Z,721.22
2019-02-27T10:33:50.437Z,725.22
2019-02-27T10:36:20.156Z,704.75
2019-02-27T10:38:50.208Z,729.38
2019-02-27T10:41:19.959Z,729.58
2019-02-27T10:43:49.652Z,739.63
2019-02-27T10:46:23.435Z,743.65
2019-02-27T10:48:51.678Z,741.98
2019-02-27T10:51:21.272Z,746.85
2019-02-27T10:53:50.976Z,757.83
2019-02-27T10:56:21.627Z,754.50
2019-02-27T10:58:51.888Z,754.92
2019-02-27T11:01:21.576Z,762.83
2019-02-27T11:03:52.196Z,772.48
2019-02-27T11:06:21.966Z,781.67
2019-02-27T11:08:51.758Z,796.67
2019-02-27T11:11:21.881Z,804.50
2019-02-27T11:13:53.326Z,811.22
2019-02-27T11:16:23.131Z,825.55
2019-02-27T11:18:52.838Z,825.88
2019-02-27T11:21:22.591Z,836.55
2019-02-27T11:23:53.328Z,846.57
2019-02-27T11:26:22.925Z,848.93
2019-02-27T11:28:52.725Z,850.75
2019-02-27T11:31:22.470Z,854.03
2019-02-27T11:33:52.251Z,860.65
2019-02-27T11:36:21.846Z,855.55
2019-02-27T11:38:51.496Z,857.10
2019-02-27T11:41:21.314Z,851.28
2019-02-27T11:43:52.699Z,850.00
2019-02-27T11:46:22.583Z,847.90
2019-02-27T11:48:52.183Z,846.23
2019-02-27T11:51:22.046Z,854.70
2019-02-27T11:53:51.783Z,851.50
2019-02-27T11:56:21.777Z,852.05
2019-02-27T11:58:51.387Z,857.33
2019-02-27T12:01:22.116Z,858.23
2019-02-27T12:03:52.459Z,859.25
2019-02-27T12:06:22.259Z,863.27
2019-02-27T12:08:52.035Z,877.28
2019-02-27T12:11:21.849Z,882.33
2019-02-27T12:13:51.597Z,893.25
2019-02-27T12:16:21.283Z,894.90
2019-02-27T12:18:50.941Z,898.78
2019-02-27T12:21:20.623Z,908.07
2019-02-27T12:23:50.475Z,918.20
2019-02-27T12:26:20.149Z,916.55
2019-02-27T12:28:52.500Z,921.18
2019-02-27T12:31:21.314Z,925.00
2019-02-27T12:33:51.115Z,921.73
2019-02-27T12:36:20.796Z,926.82
2019-02-27T12:38:50.560Z,926.90
2019-02-27T12:41:20.344Z,928.40
2019-02-27T12:43:52.553Z,932.40
2019-02-27T12:46:21.562Z,939.55
2019-02-27T12:48:51.347Z,935.80
2019-02-27T12:51:21.113Z,940.98
2019-02-27T12:53:54.400Z,938.90
2019-02-27T12:56:22.192Z,938.48
2019-02-27T12:58:51.815Z,949.60
2019-02-27T13:01:21.752Z,956.98
2019-02-27T13:03:52.466Z,957.30
2019-02-27T13:06:22.143Z,965.75
2019-02-27T13:08:52.884Z,973.93
2019-02-27T13:11:23.146Z,980.03
2019-02-27T13:13:52.786Z,973.65
2019-02-27T13:16:22.640Z,980.30
2019-02-27T13:18:52.356Z,985.70
2019-02-27T13:21:22.062Z,990.85
2019-02-27T13:23:52.614Z,992.88
2019-02-27T13:26:22.335Z,998.35
2019-02-27T13:28:52.946Z,992.00
2019-02-27T13:31:23.699Z,988.00
2019-02-27T13:33:54.353Z,998.17
2019-02-27T13:36:24.140Z,992.33
2019-02-27T13:38:53.887Z,996.90
2019-02-27T13:41:23.868Z,996.67
2019-02-27T13:43:55.045Z,994.88
2019-02-27T13:46:24.802Z,996.20
2019-02-27T13:48:54.537Z,999.90
2019-02-27T13:51:24.369Z,999.90
2019-02-27T13:53:54.043Z,999.90
2019-02-27T13:56:25.117Z,999.90
2019-02-27T13:58:56.112Z,999.90
2019-02-27T14:01:28.472Z,999.90
2019-02-27T14:03:58.437Z,999.90
2019-02-27T14:06:28.139Z,999.90
2019-02-27T14:08:57.761Z,999.90
2019-02-27T14:11:27.921Z,999.90
2019-02-27T14:13:57.649Z,999.90
2019-02-27T14:16:27.450Z,999.90
2019-02-27T14:18:57.124Z,999.90
2019-02-27T14:21:26.847Z,999.90
2019-02-27T14:23:56.576Z,999.90
2019-02-27T14:26:26.321Z,999.90
2019-02-27T14:28:56.099Z,999.90
2019-02-27T14:31:25.852Z,999.90
2019-02-27T14:33:56.429Z,999.90
2019-02-27T14:36:26.405Z,999.90
2019-02-27T14:38:56.788Z,999.90
2019-02-27T14:41:26.538Z,999.90
2019-02-27T14:43:57.633Z,999.90
2019-02-27T14:46:27.837Z,999.90
2019-02-27T14:48:58.450Z,999.90
2019-02-27T14:51:28.190Z,999.90
2019-02-27T14:53:57.909Z,999.90
2019-02-27T14:56:27.674Z,999.90
2019-02-27T14:58:57.587Z,999.90
2019-02-27T15:01:27.312Z,999.90
2019-02-27T15:04:00.379Z,999.90
2019-02-27T15:06:28.763Z,999.90
2019-02-27T15:09:03.281Z,999.90
2019-02-27T15:11:31.133Z,999.90
2019-02-27T15:14:01.087Z,999.90
2019-02-27T15:16:30.695Z,999.90
2019-02-27T15:19:01.375Z,999.90
2019-02-27T15:21:31.953Z,999.90
2019-02-27T15:24:02.158Z,999.90
2019-02-27T15:26:31.913Z,999.90
2019-02-27T15:29:03.168Z,999.90
2019-02-27T15:31:34.671Z,999.90
2019-02-27T15:34:04.435Z,999.90
2019-02-27T15:36:35.041Z,999.90
2019-02-27T15:39:07.830Z,999.90
2019-02-27T15:41:37.485Z,999.90
2019-02-27T15:44:07.225Z,999.90
2019-02-27T15:46:36.999Z,999.90
2019-02-27T15:49:06.745Z,999.90
2019-02-27T15:51:36.442Z,999.90
2019-02-27T15:54:06.144Z,999.90
2019-02-27T15:56:35.860Z,999.90
2019-02-27T15:59:08.074Z,999.90
2019-02-27T16:01:37.114Z,999.90
2019-02-27T16:04:06.855Z,999.90
2019-02-27T16:06:37.044Z,993.82
2019-02-27T16:09:09.169Z,997.67
2019-02-27T16:11:38.881Z,996.52
2019-02-27T16:14:10.131Z,992.65
2019-02-27T16:16:42.132Z,991.92
2019-02-27T16:19:11.782Z,993.73
2019-02-27T16:21:41.629Z,990.40
2019-02-27T16:24:11.318Z,996.18
2019-02-27T16:26:41.034Z,986.12
2019-02-27T16:29:10.762Z,982.75
2019-02-27T16:31:40.878Z,978.10
2019-02-27T16:34:10.568Z,975.92
2019-02-27T16:36:41.392Z,970.97
2019-02-27T16:39:11.323Z,971.63
2019-02-27T16:41:40.938Z,965.45
2019-02-27T16:44:11.173Z,957.38
2019-02-27T16:46:44.696Z,947.98
2019-02-27T16:49:13.396Z,951.95
2019-02-27T16:51:44.935Z,941.13
2019-02-27T16:54:14.723Z,934.70
2019-02-27T16:56:47.603Z,931.32
2019-02-27T16:59:15.823Z,920.93
2019-02-27T17:01:45.660Z,916.68
2019-02-27T17:04:15.256Z,914.55
2019-02-27T17:06:44.875Z,914.32
2019-02-27T17:09:14.649Z,891.17
2019-02-27T17:11:44.255Z,878.65
2019-02-27T17:14:13.867Z,881.65
2019-02-27T17:16:44.928Z,874.75
2019-02-27T17:19:15.052Z,873.38
2019-02-27T17:21:44.762Z,869.13
2019-02-27T17:24:14.583Z,854.42
2019-02-27T17:26:46.408Z,864.00
2019-02-27T17:29:15.533Z,851.73
2019-02-27T17:31:49.330Z,853.33
2019-02-27T17:34:16.604Z,847.95
2019-02-27T17:36:46.355Z,839.32
2019-02-27T17:40:19.817Z,828.88
2019-02-27T17:42:53.008Z,827.50
2019-02-27T17:45:26.220Z,833.40
2019-02-27T17:51:56.950Z,809.10
2019-02-27T17:58:31.887Z,800.90
2019-02-27T18:01:58.447Z,816.23
2019-02-27T18:08:26.239Z,811.58
2019-02-27T18:14:57.001Z,805.00
2019-02-27T18:18:21.282Z,816.98
2019-02-27T18:24:52.213Z,816.47
2019-02-27T18:31:26.654Z,800.75
2019-02-27T18:37:55.450Z,799.12
2019-02-27T18:40:25.292Z,791.20
2019-02-27T18:46:58.843Z,780.27
2019-02-27T18:53:32.141Z,760.63
2019-02-27T19:00:02.475Z,762.95
2019-02-27T19:03:27.028Z,739.45
2019-02-27T19:09:57.746Z,740.90
2019-02-27T19:13:21.914Z,727.78
2019-02-27T19:19:53.034Z,729.42
2019-02-27T19:26:23.638Z,723.15
2019-02-27T19:32:58.300Z,731.50
2019-02-27T19:39:27.005Z,743.20
2019-02-27T19:41:56.942Z,750.95
2019-02-27T19:48:28.935Z,756.23
2019-02-27T19:54:59.953Z,746.70
2019-02-27T19:58:24.347Z,751.25
2019-02-27T20:04:56.582Z,740.87
2019-02-27T20:08:20.996Z,741.83
2019-02-27T20:14:52.061Z,726.27
2019-02-27T20:21:22.748Z,714.00
2019-02-27T20:24:47.160Z,704.30
2019-02-27T20:31:20.987Z,700.95
2019-02-27T20:34:46.543Z,710.27
2019-02-27T20:41:17.198Z,698.75
2019-02-27T20:47:48.941Z,705.90
2019-02-27T20:54:19.820Z,705.30
2019-02-27T21:00:51.922Z,707.75
2019-02-27T21:04:16.349Z,692.95
2019-02-27T21:10:47.286Z,681.60
2019-02-27T21:17:20.876Z,665.35
2019-02-27T21:23:50.345Z,645.98
2019-02-27T21:30:22.841Z,627.92
2019-02-27T21:33:47.428Z,627.10
2019-02-27T21:40:18.764Z,629.83
2019-02-27T21:42:50.735Z,628.92
2019-02-27T21:49:20.997Z,617.75
2019-02-27T21:55:51.828Z,624.40
2019-02-27T21:59:16.303Z,625.30
2019-02-27T22:05:52.579Z,627.58
2019-02-27T22:09:14.618Z,621.67
2019-02-27T22:15:45.548Z,620.15
2019-02-27T22:19:09.859Z,622.23
2019-02-27T22:25:40.220Z,625.80
2019-02-27T22:29:04.758Z,620.00
2019-02-27T22:35:37.945Z,645.33
2019-02-27T22:39:02.143Z,648.78
2019-02-27T22:45:36.131Z,640.30
2019-02-27T22:52:05.139Z,622.20
2019-02-27T22:55:29.646Z,626.60
2019-02-27T23:02:00.850Z,606.58
2019-02-27T23:05:25.430Z,596.08
2019-02-27T23:11:56.720Z,575.75
2019-02-27T23:15:21.408Z,588.77
2019-02-27T23:21:51.891Z,587.12
2019-02-27T23:28:22.751Z,578.95
2019-02-27T23:31:47.863Z,571.67
2019-02-27T23:38:18.492Z,580.80
2019-02-27T23:41:43.068Z,574.92
2019-02-27T23:48:14.188Z,558.00
2019-02-27T23:54:45.362Z,561.30
